ISR041 LLBG-LLER
Flight info
| Callsign | ISR041 |
|---|---|
| Flight time | 0h 43m |
| Altitude | 22000 |
| Route | TOMAL J10 NURIT |
| Aircraft | A320/M-SDE2FGIJ1LORVWY/SB1 |
Departure
| Time | 2026-04-22 14:59 |
|---|---|
| Airport | Ben Gurion International Airport (LLBG) |
Arrival
| Time | 2026-04-22 15:42 |
|---|---|
| Airport | Ramon International Airport (LLER) |
| Time | Latitude | Longitude | Altitude | Speed | Heading |
|---|---|---|---|---|---|
| 2026-04-22 14:36 | 32.00086 | 34.88486 | 120 ft | 0 kts | 32° |
| 2026-04-22 14:42 | 32.00080 | 34.88482 | 120 ft | 4 kts | 35° |
| 2026-04-22 14:42 | 32.00062 | 34.88460 | 117 ft | 4 kts | 67° |
| 2026-04-22 14:42 | 32.00059 | 34.88434 | 118 ft | 3 kts | 119° |
| 2026-04-22 14:42 | 32.00061 | 34.88430 | 118 ft | 0 kts | 122° |
| 2026-04-22 14:47 | 32.00060 | 34.88433 | 118 ft | 2 kts | 122° |
| 2026-04-22 14:47 | 32.00048 | 34.88454 | 116 ft | 4 kts | 122° |
| 2026-04-22 14:47 | 32.00028 | 34.88492 | 117 ft | 7 kts | 122° |
| 2026-04-22 14:48 | 32.00001 | 34.88544 | 119 ft | 6 kts | 122° |
| 2026-04-22 14:48 | 31.99980 | 34.88597 | 120 ft | 7 kts | 82° |
| 2026-04-22 14:48 | 32.00024 | 34.88638 | 119 ft | 9 kts | 36° |
| 2026-04-22 14:48 | 32.00065 | 34.88689 | 119 ft | 9 kts | 80° |
| 2026-04-22 14:49 | 32.00050 | 34.88732 | 119 ft | 0 kts | 125° |
| 2026-04-22 14:55 | 32.00049 | 34.88733 | 120 ft | 1 kts | 125° |
| 2026-04-22 14:55 | 32.00038 | 34.88751 | 119 ft | 5 kts | 125° |
| 2026-04-22 14:55 | 32.00013 | 34.88796 | 116 ft | 8 kts | 123° |
| 2026-04-22 14:56 | 31.99977 | 34.88864 | 117 ft | 11 kts | 121° |
| 2026-04-22 14:56 | 31.99942 | 34.88956 | 118 ft | 13 kts | 100° |
| 2026-04-22 14:56 | 31.99962 | 34.89066 | 117 ft | 15 kts | 56° |
| 2026-04-22 14:56 | 32.00017 | 34.89113 | 118 ft | 7 kts | 26° |
| 2026-04-22 14:57 | 32.00051 | 34.89133 | 117 ft | 10 kts | 26° |
| 2026-04-22 14:57 | 32.00124 | 34.89167 | 118 ft | 11 kts | 356° |
| 2026-04-22 14:57 | 32.00157 | 34.89120 | 117 ft | 0 kts | 303° |
| 2026-04-22 14:58 | 32.00179 | 34.89080 | 119 ft | 30 kts | 303° |
| 2026-04-22 14:58 | 32.00419 | 34.88633 | 121 ft | 95 kts | 301° |
| 2026-04-22 14:58 | 32.00854 | 34.87782 | 123 ft | 145 kts | 303° |
| 2026-04-22 14:58 | 32.01432 | 34.86760 | 634 ft | 146 kts | 305° |
| 2026-04-22 14:59 | 32.01879 | 34.85689 | 1305 ft | 152 kts | 280° |
| 2026-04-22 14:59 | 32.01601 | 34.84474 | 1863 ft | 163 kts | 234° |
| 2026-04-22 14:59 | 32.00535 | 34.83838 | 2181 ft | 189 kts | 179° |
| 2026-04-22 14:59 | 31.99259 | 34.84346 | 2516 ft | 204 kts | 136° |
| 2026-04-22 15:00 | 31.98456 | 34.85726 | 3008 ft | 210 kts | 115° |
| 2026-04-22 15:00 | 31.97829 | 34.87321 | 3576 ft | 214 kts | 112° |
| 2026-04-22 15:00 | 31.97260 | 34.88926 | 4055 ft | 211 kts | 111° |
| 2026-04-22 15:00 | 31.96724 | 34.90547 | 4151 ft | 211 kts | 112° |
| 2026-04-22 15:01 | 31.96145 | 34.92121 | 4099 ft | 209 kts | 115° |
| 2026-04-22 15:01 | 31.95508 | 34.93671 | 4300 ft | 214 kts | 117° |
| 2026-04-22 15:01 | 31.94835 | 34.95255 | 4920 ft | 219 kts | 117° |
| 2026-04-22 15:01 | 31.94162 | 34.96892 | 5447 ft | 229 kts | 116° |
| 2026-04-22 15:02 | 31.93468 | 34.98684 | 5681 ft | 256 kts | 115° |
| 2026-04-22 15:02 | 31.92709 | 35.00717 | 6017 ft | 281 kts | 115° |
| 2026-04-22 15:02 | 31.91902 | 35.02856 | 6718 ft | 291 kts | 115° |
| 2026-04-22 15:02 | 31.91082 | 35.05038 | 7599 ft | 292 kts | 116° |
| 2026-04-22 15:03 | 31.90250 | 35.07246 | 8417 ft | 297 kts | 116° |
| 2026-04-22 15:03 | 31.89388 | 35.09475 | 9259 ft | 301 kts | 116° |
| 2026-04-22 15:03 | 31.88501 | 35.11712 | 10097 ft | 303 kts | 117° |
| 2026-04-22 15:03 | 31.87591 | 35.13976 | 10714 ft | 314 kts | 117° |
| 2026-04-22 15:04 | 31.86637 | 35.16375 | 11052 ft | 333 kts | 116° |
| 2026-04-22 15:04 | 31.85641 | 35.18917 | 11308 ft | 353 kts | 116° |
| 2026-04-22 15:04 | 31.84603 | 35.21592 | 11860 ft | 361 kts | 115° |
| 2026-04-22 15:04 | 31.83563 | 35.24288 | 12584 ft | 364 kts | 115° |
| 2026-04-22 15:05 | 31.82506 | 35.27017 | 13345 ft | 366 kts | 115° |
| 2026-04-22 15:05 | 31.81432 | 35.29780 | 14058 ft | 369 kts | 115° |
| 2026-04-22 15:05 | 31.80357 | 35.32535 | 14657 ft | 373 kts | 116° |
| 2026-04-22 15:05 | 31.79282 | 35.35283 | 15227 ft | 376 kts | 116° |
| 2026-04-22 15:06 | 31.78144 | 35.38113 | 15821 ft | 380 kts | 120° |
| 2026-04-22 15:06 | 31.76660 | 35.40684 | 16387 ft | 382 kts | 132° |
| 2026-04-22 15:06 | 31.74781 | 35.42824 | 16999 ft | 382 kts | 144° |
| 2026-04-22 15:06 | 31.72517 | 35.44528 | 17616 ft | 383 kts | 156° |
| 2026-04-22 15:07 | 31.70069 | 35.45637 | 18220 ft | 383 kts | 167° |
| 2026-04-22 15:07 | 31.67449 | 35.46195 | 18780 ft | 383 kts | 178° |
| 2026-04-22 15:07 | 31.64794 | 35.46167 | 19343 ft | 382 kts | 189° |
| 2026-04-22 15:07 | 31.62175 | 35.45628 | 19811 ft | 383 kts | 194° |
| 2026-04-22 15:08 | 31.59563 | 35.45022 | 19935 ft | 383 kts | 194° |
| 2026-04-22 15:08 | 31.56899 | 35.44421 | 19978 ft | 386 kts | 194° |
| 2026-04-22 15:08 | 31.54260 | 35.43838 | 19978 ft | 386 kts | 193° |
| 2026-04-22 15:08 | 31.51619 | 35.43262 | 19976 ft | 386 kts | 193° |
| 2026-04-22 15:09 | 31.48978 | 35.42688 | 19977 ft | 386 kts | 193° |
| 2026-04-22 15:09 | 31.46334 | 35.42110 | 19975 ft | 386 kts | 193° |
| 2026-04-22 15:09 | 31.43695 | 35.41526 | 19975 ft | 386 kts | 193° |
| 2026-04-22 15:09 | 31.41055 | 35.40938 | 19974 ft | 386 kts | 194° |
| 2026-04-22 15:10 | 31.38415 | 35.40345 | 19972 ft | 386 kts | 194° |
| 2026-04-22 15:10 | 31.35777 | 35.39752 | 19973 ft | 386 kts | 194° |
| 2026-04-22 15:10 | 31.33133 | 35.39181 | 19975 ft | 387 kts | 191° |
| 2026-04-22 15:10 | 31.30447 | 35.38874 | 19965 ft | 389 kts | 188° |
| 2026-04-22 15:11 | 31.27754 | 35.38591 | 19966 ft | 389 kts | 188° |
| 2026-04-22 15:11 | 31.25059 | 35.38307 | 19974 ft | 389 kts | 188° |
| 2026-04-22 15:11 | 31.22361 | 35.38023 | 19972 ft | 389 kts | 188° |
| 2026-04-22 15:11 | 31.19662 | 35.37743 | 19975 ft | 389 kts | 188° |
| 2026-04-22 15:12 | 31.16963 | 35.37463 | 19979 ft | 389 kts | 188° |
| 2026-04-22 15:12 | 31.14264 | 35.37183 | 19979 ft | 389 kts | 188° |
| 2026-04-22 15:12 | 31.11559 | 35.36902 | 19980 ft | 389 kts | 188° |
| 2026-04-22 15:12 | 31.08863 | 35.36625 | 19975 ft | 389 kts | 188° |
| 2026-04-22 15:13 | 31.06165 | 35.36351 | 19975 ft | 389 kts | 188° |
| 2026-04-22 15:13 | 31.03506 | 35.36082 | 19976 ft | 389 kts | 188° |
| 2026-04-22 15:13 | 31.00775 | 35.35802 | 19977 ft | 389 kts | 188° |
| 2026-04-22 15:13 | 30.98114 | 35.35527 | 19977 ft | 389 kts | 188° |
| 2026-04-22 15:14 | 30.95398 | 35.35179 | 19978 ft | 386 kts | 193° |
| 2026-04-22 15:14 | 30.92822 | 35.34358 | 19972 ft | 383 kts | 204° |
| 2026-04-22 15:14 | 30.90372 | 35.33163 | 19972 ft | 382 kts | 206° |
| 2026-04-22 15:14 | 30.87927 | 35.31953 | 19963 ft | 382 kts | 206° |
| 2026-04-22 15:15 | 30.85515 | 35.30760 | 19968 ft | 382 kts | 206° |
| 2026-04-22 15:15 | 30.83071 | 35.29555 | 19971 ft | 381 kts | 206° |
| 2026-04-22 15:15 | 30.80630 | 35.28351 | 19973 ft | 381 kts | 206° |
| 2026-04-22 15:15 | 30.78157 | 35.27130 | 19974 ft | 381 kts | 206° |
| 2026-04-22 15:16 | 30.75719 | 35.25925 | 19974 ft | 381 kts | 206° |
| 2026-04-22 15:16 | 30.73280 | 35.24723 | 19974 ft | 381 kts | 206° |
| 2026-04-22 15:16 | 30.70840 | 35.23525 | 19966 ft | 381 kts | 206° |
| 2026-04-22 15:16 | 30.68397 | 35.22326 | 19962 ft | 381 kts | 206° |
| 2026-04-22 15:17 | 30.65988 | 35.21143 | 19958 ft | 381 kts | 206° |
| 2026-04-22 15:17 | 30.63544 | 35.19945 | 19950 ft | 381 kts | 206° |
| 2026-04-22 15:17 | 30.61096 | 35.18749 | 19949 ft | 382 kts | 206° |
| 2026-04-22 15:17 | 30.58647 | 35.17550 | 19948 ft | 382 kts | 206° |
| 2026-04-22 15:18 | 30.56174 | 35.16415 | 19949 ft | 384 kts | 200° |
| 2026-04-22 15:18 | 30.53558 | 35.15729 | 19950 ft | 387 kts | 192° |
| 2026-04-22 15:18 | 30.50901 | 35.15216 | 19954 ft | 387 kts | 192° |
| 2026-04-22 15:18 | 30.48206 | 35.14697 | 19947 ft | 387 kts | 192° |
| 2026-04-22 15:19 | 30.45547 | 35.14186 | 19942 ft | 387 kts | 192° |
| 2026-04-22 15:19 | 30.42887 | 35.13678 | 19947 ft | 387 kts | 192° |
| 2026-04-22 15:19 | 30.40267 | 35.13177 | 19950 ft | 387 kts | 192° |
| 2026-04-22 15:19 | 30.37570 | 35.12659 | 19954 ft | 387 kts | 193° |
| 2026-04-22 15:20 | 30.35809 | 35.12318 | 19945 ft | 386 kts | 193° |
| 2026-04-22 15:20 | 30.32316 | 35.11644 | 19547 ft | 376 kts | 193° |
| 2026-04-22 15:20 | 30.29783 | 35.11162 | 19087 ft | 373 kts | 192° |
| 2026-04-22 15:20 | 30.27232 | 35.10685 | 18596 ft | 371 kts | 192° |
| 2026-04-22 15:21 | 30.24692 | 35.10213 | 18083 ft | 369 kts | 192° |
| 2026-04-22 15:21 | 30.22171 | 35.09742 | 17564 ft | 365 kts | 192° |
| 2026-04-22 15:21 | 30.19676 | 35.09251 | 17081 ft | 361 kts | 193° |
| 2026-04-22 15:21 | 30.17215 | 35.08743 | 16598 ft | 358 kts | 193° |
| 2026-04-22 15:22 | 30.14778 | 35.08230 | 16121 ft | 355 kts | 193° |
| 2026-04-22 15:22 | 30.12360 | 35.07717 | 15638 ft | 352 kts | 193° |
| 2026-04-22 15:22 | 30.09960 | 35.07209 | 15161 ft | 349 kts | 192° |
| 2026-04-22 15:22 | 30.07579 | 35.06713 | 14689 ft | 347 kts | 192° |
| 2026-04-22 15:23 | 30.05203 | 35.06227 | 14211 ft | 346 kts | 193° |
| 2026-04-22 15:23 | 30.02834 | 35.05759 | 13731 ft | 344 kts | 192° |
| 2026-04-22 15:23 | 30.00479 | 35.05304 | 13219 ft | 342 kts | 191° |
| 2026-04-22 15:23 | 29.98164 | 35.04862 | 12996 ft | 331 kts | 192° |
| 2026-04-22 15:24 | 29.95937 | 35.04436 | 12854 ft | 319 kts | 192° |
| 2026-04-22 15:24 | 29.93787 | 35.04021 | 12715 ft | 308 kts | 191° |
| 2026-04-22 15:24 | 29.91707 | 35.03618 | 12583 ft | 298 kts | 193° |
| 2026-04-22 15:24 | 29.89690 | 35.03225 | 12449 ft | 289 kts | 192° |
| 2026-04-22 15:25 | 29.87741 | 35.02844 | 12310 ft | 281 kts | 192° |
| 2026-04-22 15:25 | 29.85834 | 35.02476 | 12050 ft | 277 kts | 192° |
| 2026-04-22 15:25 | 29.83943 | 35.02113 | 11780 ft | 274 kts | 192° |
| 2026-04-22 15:25 | 29.82086 | 35.01676 | 11492 ft | 270 kts | 200° |
| 2026-04-22 15:26 | 29.80352 | 35.00859 | 11151 ft | 270 kts | 204° |
| 2026-04-22 15:26 | 29.78644 | 35.00003 | 10656 ft | 266 kts | 204° |
| 2026-04-22 15:26 | 29.76933 | 34.99199 | 10094 ft | 265 kts | 195° |
| 2026-04-22 15:26 | 29.75105 | 34.98925 | 9473 ft | 267 kts | 177° |
| 2026-04-22 15:27 | 29.73306 | 34.99293 | 8836 ft | 268 kts | 166° |
| 2026-04-22 15:27 | 29.71455 | 34.99523 | 8114 ft | 271 kts | 187° |
| 2026-04-22 15:27 | 29.69638 | 34.98954 | 7411 ft | 273 kts | 207° |
| 2026-04-22 15:27 | 29.68103 | 34.97666 | 6729 ft | 275 kts | 223° |
| 2026-04-22 15:28 | 29.66718 | 34.96159 | 6418 ft | 273 kts | 225° |
| 2026-04-22 15:28 | 29.65358 | 34.94657 | 6202 ft | 269 kts | 225° |
| 2026-04-22 15:28 | 29.64020 | 34.93188 | 6045 ft | 262 kts | 225° |
| 2026-04-22 15:28 | 29.62733 | 34.91780 | 6026 ft | 248 kts | 225° |
| 2026-04-22 15:29 | 29.61519 | 34.90460 | 6034 ft | 234 kts | 225° |
| 2026-04-22 15:29 | 29.60345 | 34.89163 | 6034 ft | 230 kts | 225° |
| 2026-04-22 15:29 | 29.59188 | 34.87884 | 6035 ft | 230 kts | 225° |
| 2026-04-22 15:30 | 29.57211 | 34.85711 | 6035 ft | 245 kts | 225° |
| 2026-04-22 15:30 | 29.55573 | 34.83913 | 6034 ft | 246 kts | 224° |
| 2026-04-22 15:30 | 29.54333 | 34.82557 | 6034 ft | 246 kts | 225° |
| 2026-04-22 15:30 | 29.53099 | 34.81196 | 6034 ft | 246 kts | 225° |
| 2026-04-22 15:31 | 29.51859 | 34.79834 | 6033 ft | 246 kts | 225° |
| 2026-04-22 15:31 | 29.50624 | 34.78471 | 6031 ft | 246 kts | 223° |
| 2026-04-22 15:31 | 29.49176 | 34.77439 | 6033 ft | 247 kts | 203° |
| 2026-04-22 15:31 | 29.47562 | 34.76742 | 6032 ft | 249 kts | 200° |
| 2026-04-22 15:32 | 29.45931 | 34.76088 | 6020 ft | 248 kts | 200° |
| 2026-04-22 15:32 | 29.44295 | 34.75438 | 6021 ft | 249 kts | 199° |
| 2026-04-22 15:32 | 29.42591 | 34.75180 | 6024 ft | 250 kts | 172° |
| 2026-04-22 15:32 | 29.40996 | 34.75925 | 6001 ft | 252 kts | 142° |
| 2026-04-22 15:33 | 29.39908 | 34.77477 | 5698 ft | 252 kts | 111° |
| 2026-04-22 15:33 | 29.39657 | 34.79413 | 5398 ft | 245 kts | 79° |
| 2026-04-22 15:33 | 29.40124 | 34.81266 | 5076 ft | 242 kts | 66° |
| 2026-04-22 15:33 | 29.40737 | 34.83073 | 4717 ft | 244 kts | 65° |
| 2026-04-22 15:34 | 29.41356 | 34.84888 | 4336 ft | 245 kts | 65° |
| 2026-04-22 15:34 | 29.41968 | 34.86718 | 4016 ft | 244 kts | 65° |
| 2026-04-22 15:34 | 29.42570 | 34.88515 | 3766 ft | 239 kts | 65° |
| 2026-04-22 15:34 | 29.43157 | 34.90278 | 3518 ft | 235 kts | 64° |
| 2026-04-22 15:35 | 29.43560 | 34.91417 | 3402 ft | 228 kts | 57° |
| 2026-04-22 15:35 | 29.44838 | 34.93184 | 3325 ft | 208 kts | 34° |
| 2026-04-22 15:35 | 29.46092 | 34.93959 | 3324 ft | 204 kts | 16° |
| 2026-04-22 15:35 | 29.47435 | 34.94356 | 3325 ft | 193 kts | 12° |
| 2026-04-22 15:36 | 29.48706 | 34.94708 | 3322 ft | 185 kts | 12° |
| 2026-04-22 15:36 | 29.49962 | 34.95057 | 3325 ft | 186 kts | 12° |
| 2026-04-22 15:36 | 29.51221 | 34.95406 | 3326 ft | 186 kts | 12° |
| 2026-04-22 15:36 | 29.52476 | 34.95756 | 3333 ft | 184 kts | 12° |
| 2026-04-22 15:37 | 29.53719 | 34.96102 | 3335 ft | 184 kts | 12° |
| 2026-04-22 15:37 | 29.54962 | 34.96449 | 3320 ft | 184 kts | 12° |
| 2026-04-22 15:37 | 29.56216 | 34.96798 | 3174 ft | 185 kts | 12° |
| 2026-04-22 15:37 | 29.57447 | 34.97142 | 3001 ft | 180 kts | 11° |
| 2026-04-22 15:38 | 29.58650 | 34.97478 | 2751 ft | 176 kts | 11° |
| 2026-04-22 15:38 | 29.60956 | 34.98121 | 2303 ft | 166 kts | 14° |
| 2026-04-22 15:38 | 29.62064 | 34.98430 | 2082 ft | 163 kts | 13° |
| 2026-04-22 15:39 | 29.62788 | 34.98632 | 1943 ft | 160 kts | 14° |
| 2026-04-22 15:39 | 29.63856 | 34.98930 | 1736 ft | 156 kts | 14° |
| 2026-04-22 15:39 | 29.64879 | 34.99216 | 1525 ft | 146 kts | 13° |
| 2026-04-22 15:39 | 29.65847 | 34.99486 | 1343 ft | 141 kts | 11° |
| 2026-04-22 15:40 | 29.66786 | 34.99749 | 1108 ft | 137 kts | 11° |
| 2026-04-22 15:40 | 29.67716 | 35.00011 | 972 ft | 137 kts | 15° |
| 2026-04-22 15:40 | 29.68642 | 35.00274 | 778 ft | 133 kts | 17° |
| 2026-04-22 15:40 | 29.69559 | 35.00532 | 683 ft | 136 kts | 13° |
| 2026-04-22 15:41 | 29.70469 | 35.00787 | 531 ft | 135 kts | 13° |
| 2026-04-22 15:41 | 29.71382 | 35.01045 | 322 ft | 134 kts | 15° |
| 2026-04-22 15:41 | 29.72189 | 35.01269 | 300 ft | 102 kts | 13° |
| 2026-04-22 15:41 | 29.72710 | 35.01411 | 298 ft | 52 kts | 14° |
| 2026-04-22 15:42 | 29.72914 | 35.01471 | 298 ft | 20 kts | 13° |
| 2026-04-22 15:42 | 29.73052 | 35.01509 | 299 ft | 21 kts | 13° |
| 2026-04-22 15:42 | 29.73194 | 35.01513 | 299 ft | 22 kts | 355° |
| 2026-04-22 15:42 | 29.73327 | 35.01479 | 300 ft | 14 kts | 345° |
| 2026-04-22 15:43 | 29.73380 | 35.01410 | 298 ft | 13 kts | 259° |
| 2026-04-22 15:43 | 29.73370 | 35.01297 | 298 ft | 15 kts | 274° |
| 2026-04-22 15:43 | 29.73399 | 35.01183 | 298 ft | 13 kts | 291° |
| 2026-04-22 15:43 | 29.73351 | 35.01115 | 301 ft | 13 kts | 194° |
| 2026-04-22 15:44 | 29.73255 | 35.01092 | 298 ft | 15 kts | 192° |
| 2026-04-22 15:44 | 29.73147 | 35.01059 | 298 ft | 17 kts | 194° |
| 2026-04-22 15:44 | 29.73049 | 35.01036 | 298 ft | 11 kts | 193° |
| 2026-04-22 15:44 | 29.72966 | 35.01010 | 298 ft | 13 kts | 194° |
| 2026-04-22 15:45 | 29.72867 | 35.00992 | 299 ft | 15 kts | 189° |
| 2026-04-22 15:45 | 29.72758 | 35.00962 | 299 ft | 14 kts | 193° |
| 2026-04-22 15:45 | 29.72684 | 35.00944 | 299 ft | 11 kts | 191° |
| 2026-04-22 15:45 | 29.72660 | 35.00900 | 299 ft | 7 kts | 281° |
| 2026-04-22 15:46 | 29.72671 | 35.00849 | 301 ft | 4 kts | 283° |
| 2026-04-22 15:46 | 29.72674 | 35.00834 | 299 ft | 0 kts | 284° |